Terminal Aerodrome Forecast
Issued by NWS

Home | Current Version | Previous Version | Graphics & Text | Print | Product List | Glossary On
Versions: 1 2 3 4 5 6 7 8 9 10 11 12 13 14 15
961
FTUS43 KGRB 030538
TAFMTW
TAF
KMTW 030538Z 0306/0406 29008KT P6SM OVC025
     FM031200 29006KT P6SM BKN030
     FM032100 23003KT P6SM BKN035=

USA.gov is the U.S. government's official web portal to all federal, state and local government web resources and services.